Flight Track Log - Related Links

Times and Time Zones

All times are in EDT time to prevent confusion due to time zone crossing. See the AWE1846 flight status page for this flight to view local times or setup timezone preferences in your user account.

Time Position Orientation Groundspeed Altitude Reporting Facility
EDT Latitude Longitude Course Direction KTS MPH feet Rate Location/Type
Tue 12:05:46 PM 38.8333 -77.0333 230° Southwest 161 185 900  Level Potomac TRACON
Tue 12:06:40 PM 38.7833 -77.0333 180° South 189 217 2,500 1,895 Climbing Potomac TRACON
Tue 12:07:40 PM 38.7667 -77.1000 252° West 264 304 4,500 2,650 Climbing Potomac TRACON
Tue 12:08:40 PM 38.7333 -77.1833 243° Southwest 276 318 7,800 2,566 Climbing Potomac TRACON
Tue 12:10:00 PM 38.4083 -77.5375 201° Southwest  Level FlightAware Approximate
Tue 12:10:12 PM 38.6511 -77.3064 229° Southwest 288 331 11,000  Level Washington Center
Tue 12:11:00 PM 38.3343 -77.6569 230° Southwest  Level FlightAware Approximate
Tue 12:11:14 PM 38.5831 -77.3978 226° Southwest 324 373 11,500  Level Washington Center
Tue 12:12:12 PM 38.5128 -77.4914 226° Southwest 353 406 13,900 2,288 Climbing Washington Center
Tue 12:13:12 PM 38.4403 -77.5878 226° Southwest 372 428 16,000 1,934 Climbing Washington Center
Tue 12:14:13 PM 38.3656 -77.6889 227° Southwest 378 435 17,800 1,770 Climbing Washington Center
Tue 12:15:14 PM 38.2886 -77.7900 226° Southwest 391 450 19,600 1,729 Climbing Washington Center
Tue 12:16:11 PM 38.2117 -77.8961 227° Southwest 397 457 21,200 1,627 Climbing Washington Center
Tue 12:17:12 PM 38.1283 -78.0017 225° Southwest 410 472 22,800 1,537 Climbing Washington Center
Tue 12:18:12 PM 38.0447 -78.1097 226° Southwest 422 486 24,300 1,438 Climbing Washington Center
Tue 12:19:13 PM 37.9697 -78.1994 223° Southwest 422 486 25,700 1,488 Climbing Washington Center
Tue 12:20:13 PM 37.8758 -78.2908 218° Southwest 422 486 27,300 1,513 Climbing Washington Center
Tue 12:21:12 PM 37.7781 -78.3819 216° Southwest 433 498 28,700 1,250 Climbing Washington Center
Tue 12:22:13 PM 37.6797 -78.4731 216° Southwest 438 504 29,800 992 Climbing Washington Center
Tue 12:23:13 PM 37.5794 -78.5661 216° Southwest 444 511 30,700 1,190 Climbing Washington Center
Tue 12:24:14 PM 37.4811 -78.6592 217° Southwest 450 518 32,200 1,462 Climbing Washington Center
Tue 12:25:12 PM 37.3850 -78.7492 217° Southwest 445 512 33,600 966 Climbing Washington Center
Tue 12:26:12 PM 37.2889 -78.8367 216° Southwest 440 506 34,100 200 Climbing Washington Center
Tue 12:27:12 PM 37.1925 -78.9264 217° Southwest 440 506 34,000  Descending Washington Center
Tue 12:28:14 PM 37.0797 -79.0075 210° Southwest 440 506 34,100 49 Climbing Washington Center
Tue 12:29:14 PM 36.9731 -79.0808 209° Southwest 440 506 34,100 -51 Level Washington Center
Tue 12:30:12 PM 36.8689 -79.1489 208° Southwest 435 501 34,000 -51 Descending Washington Center
Tue 12:31:12 PM 36.7606 -79.2189 207° Southwest 435 501 34,000  Level Washington Center
Tue 12:32:13 PM 36.6561 -79.2892 208° Southwest 435 501 34,000  Level Washington Center
Tue 12:33:14 PM 36.5494 -79.3592 208° Southwest 435 501 34,000 50 Level Washington Center
Tue 12:34:12 PM 36.4411 -79.4261 206° Southwest 435 501 34,100  Climbing Washington Center
Tue 12:35:13 PM 36.3386 -79.4958 209° Southwest 435 501 34,000 -49 Descending Washington Center
Tue 12:36:14 PM 36.2319 -79.5653 208° Southwest 435 501 34,000  Level Washington Center
Tue 12:38:33 PM 35.9867 -79.7250 208° Southwest 442 509 34,000  Level Atlanta Center
Tue 12:39:33 PM 35.8806 -79.7947 208° Southwest 442 509 34,000  Level Atlanta Center
Tue 12:40:33 PM 35.7703 -79.8644 207° Southwest 442 509 34,000  Level Atlanta Center
Tue 12:41:33 PM 35.6619 -79.9311 207° Southwest 442 509 34,000  Level Atlanta Center
Tue 12:42:33 PM 35.5456 -80.0061 208° Southwest 442 509 34,000 50 Level Atlanta Center
Tue 12:43:33 PM 35.4392 -80.0725 207° Southwest 442 509 34,100  Climbing Atlanta Center
Tue 12:44:33 PM 35.3289 -80.1439 208° Southwest 442 509 34,000 -50 Descending Atlanta Center
Tue 12:45:33 PM 35.2225 -80.2100 207° Southwest 442 509 34,000 33 Level Atlanta Center
Tue 12:47:34 PM 35.0019 -80.3483 207° Southwest 448 516 34,100 33 Climbing Jacksonville Center
Tue 12:48:34 PM 34.8928 -80.4147 207° Southwest 443 510 34,100 -50 Level Jacksonville Center
Tue 12:49:34 PM 34.7917 -80.4783 207° Southwest 437 503 34,000 -50 Descending Jacksonville Center
Tue 12:50:34 PM 34.6825 -80.5522 209° Southwest 430 495 34,000  Level Jacksonville Center
Tue 12:51:34 PM 34.5753 -80.6156 206° Southwest 436 502 34,000  Level Jacksonville Center
Tue 12:52:34 PM 34.4681 -80.6864 209° Southwest 431 496 34,000  Level Jacksonville Center
Tue 12:53:34 PM 34.3525 -80.7572 207° Southwest 443 510 34,000  Level Jacksonville Center
Tue 12:54:34 PM 34.2533 -80.8150 206° Southwest 435 501 34,000  Level Jacksonville Center
Tue 12:55:34 PM 34.1458 -80.8853 208° Southwest 430 495 34,000  Level Jacksonville Center
Tue 12:56:34 PM 34.0383 -80.9478 206° Southwest 430 495 34,000  Level Jacksonville Center
Tue 12:57:34 PM 33.9289 -81.0153 207° Southwest 430 495 34,000  Level Jacksonville Center
Tue 12:58:34 PM 33.8192 -81.0753 204° Southwest 430 495 34,000  Level Jacksonville Center
Tue 12:59:34 PM 33.7072 -81.1325 203° Southwest 435 501 34,000  Level Jacksonville Center
Tue 01:00:34 PM 33.5953 -81.1844 201° Southwest 435 501 34,000  Level Jacksonville Center
Tue 01:01:34 PM 33.4856 -81.2414 203° Southwest 435 501 34,000  Level Jacksonville Center
Tue 01:02:34 PM 33.3733 -81.2958 202° Southwest 435 501 34,000  Level Jacksonville Center
Tue 01:03:34 PM 33.2614 -81.3500 202° Southwest 435 501 34,000  Level Jacksonville Center
Tue 01:04:34 PM 33.1494 -81.4039 202° Southwest 435 501 34,000  Level Jacksonville Center
Tue 01:05:34 PM 33.0372 -81.4603 203° Southwest 435 501 34,000  Level Jacksonville Center
Tue 01:06:34 PM 32.9272 -81.5142 202° Southwest 435 501 34,000  Level Jacksonville Center
Tue 01:07:34 PM 32.8233 -81.5578 199° South 435 501 34,000  Level Jacksonville Center
Tue 01:08:34 PM 32.7047 -81.5867 192° South 440 506 34,000  Level Jacksonville Center
Tue 01:09:34 PM 32.5819 -81.6228 194° South 431 496 34,000 50 Level Jacksonville Center
Tue 01:10:34 PM 32.4611 -81.6517 191° South 431 496 34,100 50 Climbing Jacksonville Center
Tue 01:11:34 PM 32.3425 -81.6828 192° South 431 496 34,100  Level Jacksonville Center
Tue 01:12:34 PM 32.2258 -81.7139 193° South 431 496 34,100 -50 Level Jacksonville Center
Tue 01:13:34 PM 32.1194 -81.7372 191° South 431 496 34,000 -50 Descending Jacksonville Center
Tue 01:14:34 PM 31.9883 -81.7708 192° South 432 497 34,000  Level Jacksonville Center
Tue 01:15:34 PM 31.8736 -81.8014 193° South 432 497 34,000 50 Level Jacksonville Center
Tue 01:16:34 PM 31.7550 -81.8272 190° South 426 490 34,100 50 Climbing Jacksonville Center
Tue 01:17:34 PM 31.6383 -81.8578 193° South 427 491 34,100  Level Jacksonville Center
Tue 01:18:34 PM 31.5319 -81.8858 193° South 432 497 34,100 -50 Level Jacksonville Center
Tue 01:19:34 PM 31.4028 -81.9164 191° South 432 497 34,000 -50 Descending Jacksonville Center
Tue 01:20:34 PM 31.2819 -81.9494 193° South 432 497 34,000  Level Jacksonville Center
Tue 01:21:34 PM 31.1653 -81.9772 192° South 432 497 34,000  Level Jacksonville Center
Tue 01:22:34 PM 31.0569 -82.0050 192° South 432 497 34,000  Level Jacksonville Center
Tue 01:23:34 PM 30.9381 -82.0328 191° South 432 497 34,000  Level Jacksonville Center
Tue 01:24:34 PM 30.8214 -82.0653 193° South 432 497 34,000  Level Jacksonville Center
Tue 01:25:34 PM 30.7025 -82.0906 190° South 432 497 34,000  Level Jacksonville Center
Tue 01:26:34 PM 30.5836 -82.1203 192° South 432 497 34,000  Level Jacksonville Center
Tue 01:27:34 PM 30.4647 -82.1431 189° South 432 497 34,000  Level Jacksonville Center
Tue 01:28:34 PM 30.3458 -82.1728 192° South 432 497 34,000 -450 Level Jacksonville Center
Tue 01:29:34 PM 30.2269 -82.2025 192° South 432 497 33,100 -950 Descending Jacksonville Center
Tue 01:30:34 PM 30.1125 -82.2297 192° South 432 497 32,100 -1,000 Descending Jacksonville Center
Tue 01:31:34 PM 29.9914 -82.2619 193° South 432 497 31,100 -1,000 Descending Jacksonville Center
Tue 01:32:34 PM 29.8683 -82.2914 192° South 437 503 30,100 -1,000 Descending Jacksonville Center
Tue 01:33:34 PM 29.7536 -82.3183 192° South 437 503 29,100 -1,050 Descending Jacksonville Center
Tue 01:34:34 PM 29.6347 -82.3456 191° South 432 497 28,000 -1,500 Descending Jacksonville Center
Tue 01:35:34 PM 29.5181 -82.3508 182° South 426 490 26,100 -2,000 Descending Jacksonville Center
Tue 01:36:34 PM 29.4031 -82.3372 174° South 420 483 24,000 -2,000 Descending Jacksonville Center
Tue 01:37:34 PM 29.2925 -82.3236 174° South 420 483 22,100 -1,850 Descending Jacksonville Center
Tue 01:38:34 PM 29.1858 -82.3097 174° South 404 465 20,300 -1,750 Descending Jacksonville Center
Tue 01:39:34 PM 29.0814 -82.2986 175° South 392 451 18,600 -1,650 Descending Jacksonville Center
Tue 01:40:34 PM 28.9792 -82.2850 173° South 381 438 17,000 -1,750 Descending Jacksonville Center
Tue 01:41:34 PM 28.8725 -82.2761 176° South 370 426 15,100 -1,448 Descending Jacksonville Center
Tue 01:43:57 PM 28.6667 -82.2500 174° South 293 337 12,100 -1,412 Descending Tampa TRACON
Tue 01:45:15 PM 28.5500 -82.2500 180° South 294 338 9,900 -1,714 Descending Tampa TRACON
Tue 01:46:03 PM 28.4833 -82.2500 180° South 292 336 8,500 -1,450 Descending Tampa TRACON
Tue 01:47:15 PM 28.4000 -82.2500 180° South 284 327 7,000 -682 Descending Tampa TRACON
Tue 01:48:15 PM 28.3333 -82.2667 192° South 280 322 7,000 -421 Level Tampa TRACON
Tue 01:49:09 PM 28.2833 -82.3333 230° Southwest 272 313 6,200 -1,263 Descending Tampa TRACON
Tue 01:50:09 PM 28.2500 -82.4000 240° Southwest 271 312 4,600 -1,550 Descending Tampa TRACON
Tue 01:51:09 PM 28.2000 -82.4667 230° Southwest 267 307 3,100 -842 Descending Tampa TRACON
Tue 01:52:03 PM 28.1500 -82.5333 230° Southwest 243 280 3,000 -650 Descending Tampa TRACON
Tue 01:53:09 PM 28.1000 -82.5333 180° South 207 238 1,800 -952 Descending Tampa TRACON
Tue 01:54:09 PM 28.0500 -82.5333 180° South 152 175 1,000 -750 Descending Tampa TRACON
Tue 01:55:09 PM 28.0000 -82.5333 180° South 136 157 300 -700 Descending Tampa TRACON

Login

Don't have an account? Register now (free) for customized features, flight alerts, and more!